sensor_id;sensor_type;location;lat;lon;timestamp;P1;P2;P0
76049;PMS7003;64967;50.234;19.224;2023-02-24T00:01:45;12.00;9.50;8.00
76049;PMS7003;64967;50.234;19.224;2023-02-24T00:04:28;11.25;9.00;7.00
76049;PMS7003;64967;50.234;19.224;2023-02-24T00:06:57;8.25;7.50;6.00
76049;PMS7003;64967;50.234;19.224;2023-02-24T00:09:26;8.75;6.50;5.00
76049;PMS7003;64967;50.234;19.224;2023-02-24T00:11:59;9.00;7.50;5.00
76049;PMS7003;64967;50.234;19.224;2023-02-24T00:14:30;10.25;7.75;6.00
76049;PMS7003;64967;50.234;19.224;2023-02-24T00:17:00;8.00;6.50;5.00
76049;PMS7003;64967;50.234;19.224;2023-02-24T00:19:28;9.50;7.75;6.00
76049;PMS7003;64967;50.234;19.224;2023-02-24T00:22:00;11.50;11.00;8.25
76049;PMS7003;64967;50.234;19.224;2023-02-24T00:24:28;7.25;6.50;3.25
76049;PMS7003;64967;50.234;19.224;2023-02-24T00:26:57;7.75;4.50;3.50
76049;PMS7003;64967;50.234;19.224;2023-02-24T00:29:26;7.00;6.00;3.50
76049;PMS7003;64967;50.234;19.224;2023-02-24T00:31:55;7.25;6.75;5.00
76049;PMS7003;64967;50.234;19.224;2023-02-24T00:34:33;7.00;6.50;5.25
76049;PMS7003;64967;50.234;19.224;2023-02-24T00:37:02;8.50;6.00;3.50
76049;PMS7003;64967;50.234;19.224;2023-02-24T00:39:32;8.00;6.25;4.00
76049;PMS7003;64967;50.234;19.224;2023-02-24T00:42:01;5.00;4.50;3.00
76049;PMS7003;64967;50.234;19.224;2023-02-24T00:44:32;7.00;5.25;4.00
76049;PMS7003;64967;50.234;19.224;2023-02-24T00:47:07;8.75;7.00;6.00
76049;PMS7003;64967;50.234;19.224;2023-02-24T00:49:36;7.75;6.00;3.25
76049;PMS7003;64967;50.234;19.224;2023-02-24T00:52:09;7.25;4.75;4.00
76049;PMS7003;64967;50.234;19.224;2023-02-24T00:54:41;4.50;3.25;2.25
76049;PMS7003;64967;50.234;19.224;2023-02-24T00:57:09;16.75;13.25;9.50
76049;PMS7003;64967;50.234;19.224;2023-02-24T00:59:37;11.25;7.75;7.00
76049;PMS7003;64967;50.234;19.224;2023-02-24T01:02:04;7.00;6.00;3.00
76049;PMS7003;64967;50.234;19.224;2023-02-24T01:04:33;7.75;7.50;5.50
76049;PMS7003;64967;50.234;19.224;2023-02-24T01:07:00;7.00;6.25;4.00
76049;PMS7003;64967;50.234;19.224;2023-02-24T01:09:29;6.00;6.00;6.00
76049;PMS7003;64967;50.234;19.224;2023-02-24T01:11:57;7.25;6.50;3.50
76049;PMS7003;64967;50.234;19.224;2023-02-24T01:14:48;28.50;22.50;14.00
76049;PMS7003;64967;50.234;19.224;2023-02-24T01:17:17;22.75;18.25;13.75
76049;PMS7003;64967;50.234;19.224;2023-02-24T01:19:45;21.50;14.75;9.50
76049;PMS7003;64967;50.234;19.224;2023-02-24T01:22:15;16.00;12.25;8.00
76049;PMS7003;64967;50.234;19.224;2023-02-24T01:24:44;11.25;9.50;7.25
76049;PMS7003;64967;50.234;19.224;2023-02-24T01:27:12;9.00;7.00;6.00
76049;PMS7003;64967;50.234;19.224;2023-02-24T01:29:40;7.00;5.00;4.00
76049;PMS7003;64967;50.234;19.224;2023-02-24T01:32:12;9.25;7.25;6.00
76049;PMS7003;64967;50.234;19.224;2023-02-24T01:34:45;7.75;5.75;4.50
76049;PMS7003;64967;50.234;19.224;2023-02-24T01:37:13;6.50;6.00;4.00
76049;PMS7003;64967;50.234;19.224;2023-02-24T01:39:45;16.25;15.25;10.50
76049;PMS7003;64967;50.234;19.224;2023-02-24T01:42:13;14.50;13.25;9.75
76049;PMS7003;64967;50.234;19.224;2023-02-24T01:47:12;13.50;12.00;8.50
76049;PMS7003;64967;50.234;19.224;2023-02-24T01:49:44;10.00;9.25;7.50
76049;PMS7003;64967;50.234;19.224;2023-02-24T01:52:15;9.50;7.25;6.25
76049;PMS7003;64967;50.234;19.224;2023-02-24T01:57:18;7.25;5.25;3.50
76049;PMS7003;64967;50.234;19.224;2023-02-24T01:59:50;7.00;6.25;3.50
76049;PMS7003;64967;50.234;19.224;2023-02-24T02:02:20;8.75;7.00;4.00
76049;PMS7003;64967;50.234;19.224;2023-02-24T02:04:53;13.50;10.00;7.00
76049;PMS7003;64967;50.234;19.224;2023-02-24T02:07:22;12.00;8.75;4.00
76049;PMS7003;64967;50.234;19.224;2023-02-24T02:09:53;9.50;6.75;6.00
76049;PMS7003;64967;50.234;19.224;2023-02-24T02:12:47;8.25;7.00;6.00
76049;PMS7003;64967;50.234;19.224;2023-02-24T02:15:24;10.25;9.00;7.50
76049;PMS7003;64967;50.234;19.224;2023-02-24T02:18:28;8.00;7.50;4.50
76049;PMS7003;64967;50.234;19.224;2023-02-24T02:21:30;9.00;6.75;4.00
76049;PMS7003;64967;50.234;19.224;2023-02-24T02:36:21;11.50;9.25;7.50
76049;PMS7003;64967;50.234;19.224;2023-02-24T02:41:33;11.25;7.75;6.00
76049;PMS7003;64967;50.234;19.224;2023-02-24T02:49:35;8.75;7.75;7.00
76049;PMS7003;64967;50.234;19.224;2023-02-24T02:52:09;7.25;4.00;3.00
76049;PMS7003;64967;50.234;19.224;2023-02-24T02:54:42;7.00;6.00;4.00
76049;PMS7003;64967;50.234;19.224;2023-02-24T02:57:22;7.25;6.25;4.50
76049;PMS7003;64967;50.234;19.224;2023-02-24T02:59:55;7.00;6.75;4.00
76049;PMS7003;64967;50.234;19.224;2023-02-24T03:02:40;9.50;8.50;6.75
76049;PMS7003;64967;50.234;19.224;2023-02-24T03:05:11;7.75;6.75;5.50
76049;PMS7003;64967;50.234;19.224;2023-02-24T03:07:43;12.75;9.00;7.00
76049;PMS7003;64967;50.234;19.224;2023-02-24T03:10:21;11.00;7.50;7.00
76049;PMS7003;64967;50.234;19.224;2023-02-24T03:12:54;10.25;9.00;7.00
76049;PMS7003;64967;50.234;19.224;2023-02-24T03:15:25;9.00;9.00;7.50
76049;PMS7003;64967;50.234;19.224;2023-02-24T03:18:00;13.50;10.50;7.00
76049;PMS7003;64967;50.234;19.224;2023-02-24T03:20:38;17.50;13.00;9.25
76049;PMS7003;64967;50.234;19.224;2023-02-24T03:23:16;14.75;13.00;10.75
76049;PMS7003;64967;50.234;19.224;2023-02-24T03:25:52;10.00;8.25;6.00
76049;PMS7003;64967;50.234;19.224;2023-02-24T03:28:29;11.00;9.00;7.25
76049;PMS7003;64967;50.234;19.224;2023-02-24T03:31:06;14.75;14.00;10.00
76049;PMS7003;64967;50.234;19.224;2023-02-24T03:33:38;17.00;14.00;11.50
76049;PMS7003;64967;50.234;19.224;2023-02-24T03:36:10;19.75;15.50;11.25
76049;PMS7003;64967;50.234;19.224;2023-02-24T03:38:40;12.25;8.25;6.75
76049;PMS7003;64967;50.234;19.224;2023-02-24T03:41:09;8.75;8.25;7.00
76049;PMS7003;64967;50.234;19.224;2023-02-24T03:43:40;6.50;6.25;3.75
76049;PMS7003;64967;50.234;19.224;2023-02-24T03:46:11;11.00;9.00;7.00
76049;PMS7003;64967;50.234;19.224;2023-02-24T03:48:45;13.50;10.75;7.25
76049;PMS7003;64967;50.234;19.224;2023-02-24T03:51:16;11.75;9.00;8.00
76049;PMS7003;64967;50.234;19.224;2023-02-24T03:59:44;14.00;11.75;8.25
76049;PMS7003;64967;50.234;19.224;2023-02-24T04:02:45;14.50;12.00;7.75
76049;PMS7003;64967;50.234;19.224;2023-02-24T04:05:19;14.00;12.75;8.00
76049;PMS7003;64967;50.234;19.224;2023-02-24T04:07:54;12.25;10.50;6.75
76049;PMS7003;64967;50.234;19.224;2023-02-24T04:16:20;6.25;6.00;4.00
76049;PMS7003;64967;50.234;19.224;2023-02-24T04:18:58;11.50;8.25;4.00
76049;PMS7003;64967;50.234;19.224;2023-02-24T04:21:32;6.25;5.00;3.50
76049;PMS7003;64967;50.234;19.224;2023-02-24T04:24:01;10.25;9.00;6.00
76049;PMS7003;64967;50.234;19.224;2023-02-24T04:26:36;11.50;8.25;7.00
76049;PMS7003;64967;50.234;19.224;2023-02-24T04:29:08;12.75;12.50;9.00
76049;PMS7003;64967;50.234;19.224;2023-02-24T04:31:46;11.00;8.75;7.00
76049;PMS7003;64967;50.234;19.224;2023-02-24T04:34:18;11.75;8.25;5.25
76049;PMS7003;64967;50.234;19.224;2023-02-24T04:36:46;6.75;6.00;3.00
76049;PMS7003;64967;50.234;19.224;2023-02-24T04:39:16;11.75;7.50;6.50
76049;PMS7003;64967;50.234;19.224;2023-02-24T04:41:47;6.25;6.25;4.00
76049;PMS7003;64967;50.234;19.224;2023-02-24T04:44:16;12.00;6.50;4.00
76049;PMS7003;64967;50.234;19.224;2023-02-24T04:46:44;9.00;6.00;4.50
76049;PMS7003;64967;50.234;19.224;2023-02-24T04:49:12;8.25;7.00;5.50
76049;PMS7003;64967;50.234;19.224;2023-02-24T04:51:39;5.25;3.25;3.25
76049;PMS7003;64967;50.234;19.224;2023-02-24T04:54:12;9.25;7.25;4.50
76049;PMS7003;64967;50.234;19.224;2023-02-24T04:56:43;10.75;10.00;8.00
76049;PMS7003;64967;50.234;19.224;2023-02-24T04:59:13;12.00;12.00;8.00
76049;PMS7003;64967;50.234;19.224;2023-02-24T05:01:41;14.75;12.25;9.00
76049;PMS7003;64967;50.234;19.224;2023-02-24T05:04:10;12.00;10.50;9.00
76049;PMS7003;64967;50.234;19.224;2023-02-24T05:06:39;16.00;11.75;8.50
76049;PMS7003;64967;50.234;19.224;2023-02-24T05:09:14;12.50;10.50;7.25
76049;PMS7003;64967;50.234;19.224;2023-02-24T05:11:44;14.50;12.50;9.00
76049;PMS7003;64967;50.234;19.224;2023-02-24T05:14:15;11.00;9.00;6.50
76049;PMS7003;64967;50.234;19.224;2023-02-24T05:16:46;6.25;6.00;4.50
76049;PMS7003;64967;50.234;19.224;2023-02-24T05:19:15;9.25;8.50;7.25
76049;PMS7003;64967;50.234;19.224;2023-02-24T05:22:02;11.75;11.00;7.00
76049;PMS7003;64967;50.234;19.224;2023-02-24T05:24:32;14.00;12.00;8.00
76049;PMS7003;64967;50.234;19.224;2023-02-24T05:27:00;12.50;11.75;7.75
76049;PMS7003;64967;50.234;19.224;2023-02-24T05:29:30;11.50;9.50;7.00
76049;PMS7003;64967;50.234;19.224;2023-02-24T05:31:59;15.25;13.25;8.50
76049;PMS7003;64967;50.234;19.224;2023-02-24T05:34:28;12.50;11.25;8.25
76049;PMS7003;64967;50.234;19.224;2023-02-24T05:36:57;15.00;12.00;8.00
76049;PMS7003;64967;50.234;19.224;2023-02-24T05:39:25;18.50;13.75;9.00
76049;PMS7003;64967;50.234;19.224;2023-02-24T05:41:54;17.75;14.25;12.25
76049;PMS7003;64967;50.234;19.224;2023-02-24T05:44:23;14.00;11.50;7.25
76049;PMS7003;64967;50.234;19.224;2023-02-24T05:46:55;14.00;10.75;9.00
76049;PMS7003;64967;50.234;19.224;2023-02-24T05:49:26;12.00;9.00;6.00
76049;PMS7003;64967;50.234;19.224;2023-02-24T05:52:00;9.75;7.25;7.00
76049;PMS7003;64967;50.234;19.224;2023-02-24T05:54:34;8.75;8.00;6.00
76049;PMS7003;64967;50.234;19.224;2023-02-24T05:57:06;10.25;9.00;7.00
76049;PMS7003;64967;50.234;19.224;2023-02-24T05:59:39;13.50;11.50;7.75
76049;PMS7003;64967;50.234;19.224;2023-02-24T06:02:07;10.75;8.00;6.00
76049;PMS7003;64967;50.234;19.224;2023-02-24T06:04:39;8.00;8.00;6.25
76049;PMS7003;64967;50.234;19.224;2023-02-24T06:07:21;7.25;7.25;6.25
76049;PMS7003;64967;50.234;19.224;2023-02-24T06:09:51;7.75;6.75;4.50
76049;PMS7003;64967;50.234;19.224;2023-02-24T06:12:24;7.75;7.00;4.50
76049;PMS7003;64967;50.234;19.224;2023-02-24T06:14:55;12.75;9.50;7.00
76049;PMS7003;64967;50.234;19.224;2023-02-24T06:17:26;7.25;5.00;4.00
76049;PMS7003;64967;50.234;19.224;2023-02-24T06:19:53;9.75;8.00;7.00
76049;PMS7003;64967;50.234;19.224;2023-02-24T06:22:21;11.00;9.00;7.00
76049;PMS7003;64967;50.234;19.224;2023-02-24T06:24:51;12.00;10.00;7.00
76049;PMS7003;64967;50.234;19.224;2023-02-24T06:27:19;17.00;13.00;8.00
76049;PMS7003;64967;50.234;19.224;2023-02-24T06:29:48;16.50;13.25;9.00
76049;PMS7003;64967;50.234;19.224;2023-02-24T06:32:20;21.50;18.75;12.00
76049;PMS7003;64967;50.234;19.224;2023-02-24T06:34:50;22.50;19.25;11.00
76049;PMS7003;64967;50.234;19.224;2023-02-24T06:37:17;25.25;19.75;14.00
76049;PMS7003;64967;50.234;19.224;2023-02-24T06:39:44;27.50;24.00;14.50
76049;PMS7003;64967;50.234;19.224;2023-02-24T06:42:11;22.50;18.00;14.00
76049;PMS7003;64967;50.234;19.224;2023-02-24T06:44:39;42.75;35.25;22.00
76049;PMS7003;64967;50.234;19.224;2023-02-24T06:47:09;31.00;26.25;18.25
76049;PMS7003;64967;50.234;19.224;2023-02-24T06:49:38;27.00;21.75;13.75
76049;PMS7003;64967;50.234;19.224;2023-02-24T06:52:08;23.25;16.25;11.50
76049;PMS7003;64967;50.234;19.224;2023-02-24T06:54:37;29.75;20.25;14.75
76049;PMS7003;64967;50.234;19.224;2023-02-24T06:57:04;19.75;16.50;12.25
76049;PMS7003;64967;50.234;19.224;2023-02-24T06:59:31;17.50;16.00;10.75
76049;PMS7003;64967;50.234;19.224;2023-02-24T07:01:58;20.50;17.00;13.25
76049;PMS7003;64967;50.234;19.224;2023-02-24T07:04:27;27.75;23.25;13.50
76049;PMS7003;64967;50.234;19.224;2023-02-24T07:06:56;33.25;28.75;19.00
76049;PMS7003;64967;50.234;19.224;2023-02-24T07:09:29;36.50;29.50;19.50
76049;PMS7003;64967;50.234;19.224;2023-02-24T07:11:56;23.50;19.50;14.50
76049;PMS7003;64967;50.234;19.224;2023-02-24T07:14:25;37.75;28.50;19.00
76049;PMS7003;64967;50.234;19.224;2023-02-24T07:16:56;32.50;27.25;20.00
76049;PMS7003;64967;50.234;19.224;2023-02-24T07:19:26;29.75;21.50;14.00
76049;PMS7003;64967;50.234;19.224;2023-02-24T07:21:55;38.25;28.00;20.75
76049;PMS7003;64967;50.234;19.224;2023-02-24T07:24:28;45.25;36.00;23.50
76049;PMS7003;64967;50.234;19.224;2023-02-24T07:27:06;33.75;28.00;22.00
76049;PMS7003;64967;50.234;19.224;2023-02-24T07:29:37;23.75;21.50;17.50
76049;PMS7003;64967;50.234;19.224;2023-02-24T07:32:05;22.00;19.75;14.00
76049;PMS7003;64967;50.234;19.224;2023-02-24T07:34:34;21.75;17.00;12.75
76049;PMS7003;64967;50.234;19.224;2023-02-24T07:37:06;23.00;18.25;13.50
76049;PMS7003;64967;50.234;19.224;2023-02-24T07:39:34;21.50;19.50;14.50
76049;PMS7003;64967;50.234;19.224;2023-02-24T07:42:06;39.50;31.50;22.00
76049;PMS7003;64967;50.234;19.224;2023-02-24T07:44:34;31.75;25.00;18.00
76049;PMS7003;64967;50.234;19.224;2023-02-24T07:47:01;33.25;26.50;16.75
76049;PMS7003;64967;50.234;19.224;2023-02-24T07:49:33;32.00;23.00;14.50
76049;PMS7003;64967;50.234;19.224;2023-02-24T07:52:01;22.50;18.50;13.25
76049;PMS7003;64967;50.234;19.224;2023-02-24T07:54:28;23.50;20.50;14.75
76049;PMS7003;64967;50.234;19.224;2023-02-24T07:56:56;27.50;20.75;15.00
76049;PMS7003;64967;50.234;19.224;2023-02-24T07:59:29;28.25;23.25;15.50
76049;PMS7003;64967;50.234;19.224;2023-02-24T08:01:59;23.75;20.00;15.25
76049;PMS7003;64967;50.234;19.224;2023-02-24T08:04:30;25.25;19.00;12.50
76049;PMS7003;64967;50.234;19.224;2023-02-24T08:06:58;32.25;25.25;16.75
76049;PMS7003;64967;50.234;19.224;2023-02-24T08:09:32;21.75;20.25;16.00
76049;PMS7003;64967;50.234;19.224;2023-02-24T08:14:44;21.25;18.00;10.50
76049;PMS7003;64967;50.234;19.224;2023-02-24T08:17:21;40.25;36.25;22.00
76049;PMS7003;64967;50.234;19.224;2023-02-24T08:19:52;39.50;32.00;19.25
76049;PMS7003;64967;50.234;19.224;2023-02-24T08:22:41;43.50;36.00;23.25
76049;PMS7003;64967;50.234;19.224;2023-02-24T08:25:13;51.75;40.00;25.00
76049;PMS7003;64967;50.234;19.224;2023-02-24T08:27:45;47.00;36.75;23.75
76049;PMS7003;64967;50.234;19.224;2023-02-24T08:30:34;39.75;30.50;20.25
76049;PMS7003;64967;50.234;19.224;2023-02-24T08:33:13;31.75;30.25;17.75
76049;PMS7003;64967;50.234;19.224;2023-02-24T08:35:49;36.50;29.50;21.00
76049;PMS7003;64967;50.234;19.224;2023-02-24T08:38:28;44.00;35.00;24.00
76049;PMS7003;64967;50.234;19.224;2023-02-24T08:41:12;45.50;34.50;23.00
76049;PMS7003;64967;50.234;19.224;2023-02-24T08:43:44;49.75;36.75;24.75
76049;PMS7003;64967;50.234;19.224;2023-02-24T08:48:46;51.00;39.75;26.50
76049;PMS7003;64967;50.234;19.224;2023-02-24T08:53:57;49.00;38.50;26.00
76049;PMS7003;64967;50.234;19.224;2023-02-24T08:56:30;47.25;35.75;22.25
76049;PMS7003;64967;50.234;19.224;2023-02-24T08:59:04;54.75;43.00;26.00
76049;PMS7003;64967;50.234;19.224;2023-02-24T09:01:33;50.25;39.00;26.75
76049;PMS7003;64967;50.234;19.224;2023-02-24T09:04:06;43.50;34.50;22.75
76049;PMS7003;64967;50.234;19.224;2023-02-24T09:06:43;39.00;30.75;20.25
76049;PMS7003;64967;50.234;19.224;2023-02-24T09:09:15;57.00;40.50;25.25
76049;PMS7003;64967;50.234;19.224;2023-02-24T09:11:45;52.00;39.50;26.25
76049;PMS7003;64967;50.234;19.224;2023-02-24T09:14:16;37.25;30.00;18.75
76049;PMS7003;64967;50.234;19.224;2023-02-24T09:16:53;59.75;43.00;26.75
76049;PMS7003;64967;50.234;19.224;2023-02-24T09:19:30;47.25;34.50;21.75
76049;PMS7003;64967;50.234;19.224;2023-02-24T09:22:27;33.75;25.75;17.25
76049;PMS7003;64967;50.234;19.224;2023-02-24T09:25:02;40.50;36.25;22.75
76049;PMS7003;64967;50.234;19.224;2023-02-24T09:30:39;28.25;24.00;14.75
76049;PMS7003;64967;50.234;19.224;2023-02-24T09:33:18;27.25;20.75;15.50
76049;PMS7003;64967;50.234;19.224;2023-02-24T09:35:47;29.00;26.50;19.75
76049;PMS7003;64967;50.234;19.224;2023-02-24T09:38:18;28.75;24.25;15.75
76049;PMS7003;64967;50.234;19.224;2023-02-24T09:41:02;28.75;23.75;16.75
76049;PMS7003;64967;50.234;19.224;2023-02-24T09:44:05;37.75;28.00;18.25
76049;PMS7003;64967;50.234;19.224;2023-02-24T09:47:03;27.50;20.50;14.00
76049;PMS7003;64967;50.234;19.224;2023-02-24T09:49:59;28.50;25.50;15.25
76049;PMS7003;64967;50.234;19.224;2023-02-24T09:52:39;24.75;19.25;13.75
76049;PMS7003;64967;50.234;19.224;2023-02-24T10:00:52;54.50;39.75;26.25
76049;PMS7003;64967;50.234;19.224;2023-02-24T10:10:22;20.75;14.75;10.50
76049;PMS7003;64967;50.234;19.224;2023-02-24T10:12:49;25.75;21.25;15.00
76049;PMS7003;64967;50.234;19.224;2023-02-24T10:15:20;45.25;36.75;22.25
76049;PMS7003;64967;50.234;19.224;2023-02-24T10:18:59;54.75;38.50;26.00
76049;PMS7003;64967;50.234;19.224;2023-02-24T10:24:29;46.75;35.75;23.00
76049;PMS7003;64967;50.234;19.224;2023-02-24T10:29:51;50.75;37.25;21.25
76049;PMS7003;64967;50.234;19.224;2023-02-24T10:35:27;52.50;42.75;26.25
76049;PMS7003;64967;50.234;19.224;2023-02-24T10:37:59;38.50;34.25;20.50
76049;PMS7003;64967;50.234;19.224;2023-02-24T10:40:43;49.25;38.00;24.75
76049;PMS7003;64967;50.234;19.224;2023-02-24T10:43:25;47.00;39.75;27.00
76049;PMS7003;64967;50.234;19.224;2023-02-24T10:46:01;58.00;44.50;27.00
76049;PMS7003;64967;50.234;19.224;2023-02-24T10:48:32;45.75;36.00;21.50
76049;PMS7003;64967;50.234;19.224;2023-02-24T10:51:14;42.50;37.50;24.50
76049;PMS7003;64967;50.234;19.224;2023-02-24T10:53:48;53.50;38.75;25.00
76049;PMS7003;64967;50.234;19.224;2023-02-24T10:56:41;38.75;31.75;21.75
76049;PMS7003;64967;50.234;19.224;2023-02-24T10:59:20;49.25;38.25;26.00
76049;PMS7003;64967;50.234;19.224;2023-02-24T11:01:54;48.75;39.75;26.00
76049;PMS7003;64967;50.234;19.224;2023-02-24T11:04:33;46.75;36.25;21.25
76049;PMS7003;64967;50.234;19.224;2023-02-24T11:07:30;55.50;42.75;27.00
76049;PMS7003;64967;50.234;19.224;2023-02-24T11:10:14;37.00;32.50;22.00
76049;PMS7003;64967;50.234;19.224;2023-02-24T11:12:52;30.00;27.50;20.50
76049;PMS7003;64967;50.234;19.224;2023-02-24T11:18:36;56.25;40.25;26.25
76049;PMS7003;64967;50.234;19.224;2023-02-24T11:21:06;42.50;32.50;22.00
76049;PMS7003;64967;50.234;19.224;2023-02-24T11:26:15;31.75;26.50;17.25
76049;PMS7003;64967;50.234;19.224;2023-02-24T11:31:22;30.50;25.25;17.50
76049;PMS7003;64967;50.234;19.224;2023-02-24T11:34:04;28.75;25.00;16.50
76049;PMS7003;64967;50.234;19.224;2023-02-24T11:39:30;43.50;36.50;23.00
76049;PMS7003;64967;50.234;19.224;2023-02-24T11:42:06;38.50;32.00;22.75
76049;PMS7003;64967;50.234;19.224;2023-02-24T11:47:13;45.25;35.25;22.50
76049;PMS7003;64967;50.234;19.224;2023-02-24T11:52:17;38.50;29.25;17.75
76049;PMS7003;64967;50.234;19.224;2023-02-24T11:54:53;30.25;26.50;18.25
76049;PMS7003;64967;50.234;19.224;2023-02-24T11:57:28;40.00;33.50;20.75
76049;PMS7003;64967;50.234;19.224;2023-02-24T12:00:07;36.25;29.25;16.25
76049;PMS7003;64967;50.234;19.224;2023-02-24T12:05:37;24.00;24.00;19.25
76049;PMS7003;64967;50.234;19.224;2023-02-24T12:10:45;5.25;0.50;0.00
76049;PMS7003;64967;50.234;19.224;2023-02-24T12:13:25;36.25;27.50;17.75
76049;PMS7003;64967;50.234;19.224;2023-02-24T12:18:49;23.75;20.50;16.50
76049;PMS7003;64967;50.234;19.224;2023-02-24T12:21:26;23.75;21.50;14.00
76049;PMS7003;64967;50.234;19.224;2023-02-24T12:23:56;25.75;23.25;17.00
76049;PMS7003;64967;50.234;19.224;2023-02-24T12:32:29;22.75;21.50;16.00
76049;PMS7003;64967;50.234;19.224;2023-02-24T12:37:53;32.00;25.75;17.75
76049;PMS7003;64967;50.234;19.224;2023-02-24T12:40:34;25.25;21.00;15.75
76049;PMS7003;64967;50.234;19.224;2023-02-24T12:46:06;34.75;31.50;20.75
76049;PMS7003;64967;50.234;19.224;2023-02-24T12:51:39;51.25;32.75;21.00
76049;PMS7003;64967;50.234;19.224;2023-02-24T13:00:11;28.25;23.50;15.50
76049;PMS7003;64967;50.234;19.224;2023-02-24T13:02:51;30.25;26.25;16.00
76049;PMS7003;64967;50.234;19.224;2023-02-24T13:08:44;44.50;34.25;21.25
76049;PMS7003;64967;50.234;19.224;2023-02-24T13:14:18;32.75;24.50;16.00
76049;PMS7003;64967;50.234;19.224;2023-02-24T13:19:38;23.25;19.50;14.25
76049;PMS7003;64967;50.234;19.224;2023-02-24T13:24:39;22.75;16.75;11.00
76049;PMS7003;64967;50.234;19.224;2023-02-24T13:32:34;20.00;16.75;11.00
76049;PMS7003;64967;50.234;19.224;2023-02-24T13:37:43;13.75;11.25;8.00
76049;PMS7003;64967;50.234;19.224;2023-02-24T13:40:18;13.25;12.50;9.00
76049;PMS7003;64967;50.234;19.224;2023-02-24T13:51:29;17.75;13.75;9.75
76049;PMS7003;64967;50.234;19.224;2023-02-24T14:01:59;28.75;22.00;15.00
76049;PMS7003;64967;50.234;19.224;2023-02-24T14:04:30;23.00;19.75;13.50
76049;PMS7003;64967;50.234;19.224;2023-02-24T14:07:01;25.50;19.00;12.00
76049;PMS7003;64967;50.234;19.224;2023-02-24T14:09:41;22.75;19.25;11.00
76049;PMS7003;64967;50.234;19.224;2023-02-24T14:12:18;20.00;16.00;10.50
76049;PMS7003;64967;50.234;19.224;2023-02-24T14:14:49;26.50;21.00;13.00
76049;PMS7003;64967;50.234;19.224;2023-02-24T14:17:28;27.00;21.50;13.75
76049;PMS7003;64967;50.234;19.224;2023-02-24T14:25:21;16.00;14.75;11.00
76049;PMS7003;64967;50.234;19.224;2023-02-24T14:27:50;16.00;15.00;10.00
76049;PMS7003;64967;50.234;19.224;2023-02-24T14:33:03;13.75;11.00;8.25
76049;PMS7003;64967;50.234;19.224;2023-02-24T14:35:33;13.00;12.25;8.75
76049;PMS7003;64967;50.234;19.224;2023-02-24T14:38:25;21.50;17.00;9.75
76049;PMS7003;64967;50.234;19.224;2023-02-24T14:41:07;15.25;13.25;9.00
76049;PMS7003;64967;50.234;19.224;2023-02-24T14:43:45;21.25;19.00;13.00
76049;PMS7003;64967;50.234;19.224;2023-02-24T14:46:12;22.75;19.25;12.00
76049;PMS7003;64967;50.234;19.224;2023-02-24T14:48:39;15.25;14.00;9.50
76049;PMS7003;64967;50.234;19.224;2023-02-24T14:51:07;21.00;16.25;9.25
76049;PMS7003;64967;50.234;19.224;2023-02-24T14:53:50;22.75;18.50;13.00
76049;PMS7003;64967;50.234;19.224;2023-02-24T14:56:20;24.25;17.25;10.00
76049;PMS7003;64967;50.234;19.224;2023-02-24T14:58:52;17.00;16.00;8.25
76049;PMS7003;64967;50.234;19.224;2023-02-24T15:01:45;21.00;15.50;10.00
76049;PMS7003;64967;50.234;19.224;2023-02-24T15:04:23;19.00;17.50;12.00
76049;PMS7003;64967;50.234;19.224;2023-02-24T15:06:57;14.00;11.00;8.00
76049;PMS7003;64967;50.234;19.224;2023-02-24T15:09:40;19.50;15.75;10.00
76049;PMS7003;64967;50.234;19.224;2023-02-24T15:12:11;22.50;17.25;11.75
76049;PMS7003;64967;50.234;19.224;2023-02-24T15:14:50;24.75;17.00;10.75
76049;PMS7003;64967;50.234;19.224;2023-02-24T15:17:20;22.50;15.50;12.00
76049;PMS7003;64967;50.234;19.224;2023-02-24T15:19:48;17.75;15.00;10.50
76049;PMS7003;64967;50.234;19.224;2023-02-24T15:22:21;23.50;17.75;12.00
76049;PMS7003;64967;50.234;19.224;2023-02-24T15:24:53;16.75;13.75;10.00
76049;PMS7003;64967;50.234;19.224;2023-02-24T15:27:23;16.25;14.00;9.00
76049;PMS7003;64967;50.234;19.224;2023-02-24T15:30:05;12.75;10.75;8.00
76049;PMS7003;64967;50.234;19.224;2023-02-24T15:32:57;13.75;13.00;9.00
76049;PMS7003;64967;50.234;19.224;2023-02-24T15:35:47;17.50;15.00;9.50
76049;PMS7003;64967;50.234;19.224;2023-02-24T15:38:21;11.25;10.00;8.00
76049;PMS7003;64967;50.234;19.224;2023-02-24T15:40:56;14.50;11.75;8.00
76049;PMS7003;64967;50.234;19.224;2023-02-24T15:43:34;24.50;17.75;10.00
76049;PMS7003;64967;50.234;19.224;2023-02-24T15:46:14;21.50;18.25;13.25
76049;PMS7003;64967;50.234;19.224;2023-02-24T15:48:48;23.25;21.75;15.00
76049;PMS7003;64967;50.234;19.224;2023-02-24T15:54:09;38.00;35.00;23.00
76049;PMS7003;64967;50.234;19.224;2023-02-24T15:56:38;24.00;23.00;16.00
76049;PMS7003;64967;50.234;19.224;2023-02-24T15:59:09;26.00;24.50;18.75
76049;PMS7003;64967;50.234;19.224;2023-02-24T16:01:39;24.75;19.75;14.50
76049;PMS7003;64967;50.234;19.224;2023-02-24T16:04:06;20.25;18.00;14.00
76049;PMS7003;64967;50.234;19.224;2023-02-24T16:06:35;18.25;14.50;12.00
76049;PMS7003;64967;50.234;19.224;2023-02-24T16:09:09;19.25;13.25;10.00
76049;PMS7003;64967;50.234;19.224;2023-02-24T16:11:40;13.25;13.25;10.00
76049;PMS7003;64967;50.234;19.224;2023-02-24T16:14:14;14.25;12.00;8.75
76049;PMS7003;64967;50.234;19.224;2023-02-24T16:16:43;14.75;14.00;10.25
76049;PMS7003;64967;50.234;19.224;2023-02-24T16:19:14;16.25;16.25;12.00
76049;PMS7003;64967;50.234;19.224;2023-02-24T16:21:42;12.50;12.50;9.75
76049;PMS7003;64967;50.234;19.224;2023-02-24T16:24:09;17.00;12.00;9.75
76049;PMS7003;64967;50.234;19.224;2023-02-24T16:26:37;20.00;15.50;13.00
76049;PMS7003;64967;50.234;19.224;2023-02-24T16:29:05;21.00;15.25;12.00
76049;PMS7003;64967;50.234;19.224;2023-02-24T16:31:39;13.25;9.75;8.00
76049;PMS7003;64967;50.234;19.224;2023-02-24T16:34:08;14.25;12.50;9.50
76049;PMS7003;64967;50.234;19.224;2023-02-24T16:36:41;13.00;10.50;8.50
76049;PMS7003;64967;50.234;19.224;2023-02-24T16:39:09;14.75;12.25;8.50
76049;PMS7003;64967;50.234;19.224;2023-02-24T16:41:38;16.75;14.00;9.00
76049;PMS7003;64967;50.234;19.224;2023-02-24T16:44:05;16.75;14.00;10.00
76049;PMS7003;64967;50.234;19.224;2023-02-24T16:46:34;14.50;12.50;9.75
76049;PMS7003;64967;50.234;19.224;2023-02-24T16:49:03;12.75;10.50;7.75
76049;PMS7003;64967;50.234;19.224;2023-02-24T16:51:34;19.50;17.50;13.50
76049;PMS7003;64967;50.234;19.224;2023-02-24T16:54:01;17.50;12.25;9.00
76049;PMS7003;64967;50.234;19.224;2023-02-24T16:56:28;19.00;14.25;9.25
76049;PMS7003;64967;50.234;19.224;2023-02-24T16:58:55;17.75;14.75;10.50
76049;PMS7003;64967;50.234;19.224;2023-02-24T17:01:22;17.00;13.00;9.00
76049;PMS7003;64967;50.234;19.224;2023-02-24T17:03:50;14.50;9.75;7.50